Time;durP1;ratioP1;P1;durP2;ratioP2;P2;SDS_P1;SDS_P2;PMS_P1;PMS_P2;Temp;Humidity;BMP_temperature;BMP_pressure;BME280_temperature;BME280_humidity;BME280_pressure;Samples;Min_cycle;Max_cycle;Signal;HPM_P1;HPM_P2
2021/07/13 00:00:39;;;;;;;10.43;7.25;;;20.00;91.70;;;;;;4939765;29;20030;-84
2021/07/13 00:03:06;;;;;;;12.93;7.57;;;20.00;91.70;;;;;;4939018;29;20030;-84
2021/07/13 00:05:32;;;;;;;12.70;8.13;;;20.00;91.70;;;;;;4939753;29;20432;-84
2021/07/13 00:07:58;;;;;;;13.40;8.77;;;19.90;91.70;;;;;;4938970;29;20054;-84
2021/07/13 00:10:27;;;;;;;12.25;8.57;;;20.00;91.70;;;;;;4939452;29;20441;-84
2021/07/13 00:12:54;;;;;;;13.60;9.07;;;20.00;91.70;;;;;;4938937;29;20075;-83
2021/07/13 00:15:22;;;;;;;13.88;9.32;;;20.00;91.60;;;;;;4939271;29;20431;-84
2021/07/13 00:17:58;;;;;;;15.75;9.57;;;20.00;91.60;;;;;;4956428;29;20051;-84
2021/07/13 00:20:24;;;;;;;13.52;9.45;;;19.90;91.60;;;;;;4939347;29;20024;-84
2021/07/13 00:22:52;;;;;;;13.07;9.48;;;19.90;91.60;;;;;;4956442;29;20118;-84
2021/07/13 00:25:18;;;;;;;14.00;8.93;;;20.00;91.60;;;;;;4939195;29;20027;-84
2021/07/13 00:27:45;;;;;;;13.75;9.98;;;20.00;91.60;;;;;;4956848;29;20118;-84
2021/07/13 00:30:13;;;;;;;15.02;9.88;;;20.00;91.60;;;;;;4956687;29;20051;-84
2021/07/13 00:32:40;;;;;;;14.82;10.23;;;20.00;91.60;;;;;;4941734;29;20349;-84
2021/07/13 00:35:06;;;;;;;15.20;10.63;;;20.00;91.50;;;;;;4938514;29;20392;-84
2021/07/13 00:37:32;;;;;;;15.75;10.77;;;19.90;91.50;;;;;;4939062;29;20099;-83
2021/07/13 00:39:57;;;;;;;18.67;10.43;;;20.00;91.50;;;;;;4956094;29;20468;-84
2021/07/13 00:42:23;;;;;;;15.02;10.23;;;20.00;91.50;;;;;;4937709;29;20490;-84
2021/07/13 00:44:49;;;;;;;15.85;10.35;;;20.00;91.50;;;;;;4938999;29;20027;-85
2021/07/13 00:47:19;;;;;;;17.00;10.98;;;20.00;91.50;;;;;;4938325;29;20070;-85
2021/07/13 00:49:46;;;;;;;17.48;10.77;;;20.00;91.50;;;;;;4939177;29;20027;-84
2021/07/13 00:52:12;;;;;;;16.63;10.70;;;20.00;91.40;;;;;;4938086;29;20019;-84
2021/07/13 00:54:39;;;;;;;16.80;11.10;;;20.00;91.70;;;;;;4955969;29;20046;-84
2021/07/13 00:57:12;;;;;;;19.90;11.48;;;20.10;91.40;;;;;;4938366;29;20478;-84
2021/07/13 00:59:40;;;;;;;17.38;11.50;;;20.10;91.40;;;;;;4938997;29;20121;-84
2021/07/13 01:02:08;;;;;;;17.40;10.63;;;20.00;91.40;;;;;;4949167;29;20423;-84
2021/07/13 01:04:36;;;;;;;17.48;10.55;;;20.00;91.60;;;;;;4954589;29;20038;-84
2021/07/13 01:07:09;;;;;;;15.70;10.82;;;20.10;91.40;;;;;;4956660;29;20027;-83
2021/07/13 01:09:46;;;;;;;17.52;11.32;;;20.10;91.40;;;;;;4938888;29;20035;-84
2021/07/13 01:12:19;;;;;;;16.80;11.27;;;20.10;91.40;;;;;;4933531;29;20024;-84
2021/07/13 01:14:56;;;;;;;15.50;10.82;;;20.00;91.40;;;;;;4936526;29;20075;-84
2021/07/13 01:17:52;;;;;;;16.63;10.90;;;20.00;91.40;;;;;;4919155;29;20114;-83
2021/07/13 01:20:32;;;;;;;16.55;10.65;;;20.00;91.40;;;;;;4917213;29;20131;-84
2021/07/13 01:23:18;;;;;;;15.98;10.20;;;20.10;91.50;;;;;;4918842;29;20102;-82
2021/07/13 01:26:03;;;;;;;16.50;10.70;;;20.10;91.40;;;;;;4919052;29;20122;-82
2021/07/13 01:28:33;;;;;;;15.07;10.13;;;20.10;91.40;;;;;;4919092;29;20110;-83
2021/07/13 01:31:02;;;;;;;15.93;10.30;;;20.00;91.40;;;;;;4935062;29;20114;-83
2021/07/13 01:33:31;;;;;;;18.63;11.30;;;20.00;91.40;;;;;;4919074;29;20032;-83
2021/07/13 01:36:36;;;;;;;17.88;10.73;;;20.00;91.40;;;;;;4918852;29;20036;-84
2021/07/13 01:39:04;;;;;;;16.25;10.73;;;20.00;91.40;;;;;;4857911;29;20033;-84
2021/07/13 01:41:31;;;;;;;14.52;10.05;;;20.00;91.40;;;;;;4903876;29;20130;-84
2021/07/13 01:44:00;;;;;;;17.02;10.73;;;20.00;91.50;;;;;;4919113;29;20024;-85
2021/07/13 01:46:27;;;;;;;18.73;11.27;;;20.00;91.50;;;;;;4918480;29;20024;-84
2021/07/13 01:48:55;;;;;;;17.77;11.27;;;20.00;91.50;;;;;;4918714;29;20443;-84
2021/07/13 01:51:21;;;;;;;17.58;11.48;;;20.00;91.50;;;;;;4918112;29;20031;-84
2021/07/13 01:53:48;;;;;;;14.82;10.13;;;20.10;91.50;;;;;;4918486;29;20024;-84
2021/07/13 01:56:14;;;;;;;17.67;11.35;;;20.10;91.50;;;;;;4917830;29;20028;-84
2021/07/13 01:58:43;;;;;;;16.40;11.05;;;20.10;91.50;;;;;;4918469;29;20138;-84
2021/07/13 02:01:20;;;;;;;18.05;11.48;;;20.10;91.60;;;;;;4917960;29;20020;-84
2021/07/13 02:03:50;;;;;;;19.55;12.27;;;20.10;91.60;;;;;;4918546;29;20024;-85
2021/07/13 02:06:20;;;;;;;17.07;10.53;;;20.10;91.60;;;;;;4917548;29;20039;-84
2021/07/13 02:08:50;;;;;;;17.23;11.17;;;20.00;91.50;;;;;;4935641;29;20035;-84
2021/07/13 02:11:16;;;;;;;16.58;11.48;;;20.10;91.60;;;;;;4918157;29;20446;-82
2021/07/13 02:13:43;;;;;;;18.42;11.82;;;20.10;91.60;;;;;;4918553;29;20101;-83
2021/07/13 02:16:09;;;;;;;18.08;11.35;;;20.10;91.60;;;;;;4917756;29;20027;-82
2021/07/13 02:18:34;;;;;;;16.55;10.43;;;20.00;91.60;;;;;;4935933;29;20103;-82
2021/07/13 02:21:00;;;;;;;16.60;9.70;;;20.00;91.70;;;;;;4922651;29;20091;-82
2021/07/13 02:23:26;;;;;;;14.68;9.93;;;20.00;91.70;;;;;;4941388;29;20141;-82
2021/07/13 02:25:55;;;;;;;17.55;10.75;;;20.00;91.80;;;;;;4926282;29;20028;-82
2021/07/13 02:28:25;;;;;;;18.48;11.07;;;20.00;91.80;;;;;;4925386;29;20031;-83
2021/07/13 02:30:57;;;;;;;17.10;10.53;;;20.00;91.80;;;;;;4925493;29;20052;-83
2021/07/13 02:33:33;;;;;;;16.15;10.07;;;20.00;91.80;;;;;;4940277;29;20386;-83
2021/07/13 02:36:03;;;;;;;17.15;10.57;;;20.00;91.80;;;;;;4921157;29;20024;-84
2021/07/13 02:38:30;;;;;;;16.38;10.23;;;20.00;91.80;;;;;;4919804;29;20035;-83
2021/07/13 02:40:57;;;;;;;16.02;9.45;;;20.00;91.80;;;;;;4917844;29;20032;-84
2021/07/13 02:43:23;;;;;;;16.90;10.38;;;20.00;91.90;;;;;;4934405;29;20027;-84
2021/07/13 02:45:51;;;;;;;16.40;10.93;;;20.00;91.90;;;;;;4918074;29;20119;-83
2021/07/13 02:48:18;;;;;;;16.25;10.65;;;20.00;91.90;;;;;;4917370;29;20038;-83
2021/07/13 02:50:46;;;;;;;16.70;11.02;;;20.00;91.90;;;;;;4934596;29;20034;-83
2021/07/13 02:53:13;;;;;;;16.00;10.20;;;19.90;91.90;;;;;;4917456;29;20433;-84
2021/07/13 02:55:43;;;;;;;15.65;9.82;;;20.00;91.90;;;;;;4918083;29;20031;-83
2021/07/13 02:58:09;;;;;;;17.20;11.23;;;19.90;91.90;;;;;;4917314;29;20032;-83
2021/07/13 03:00:36;;;;;;;15.38;10.13;;;19.90;91.90;;;;;;4918244;29;20091;-84
2021/07/13 03:03:03;;;;;;;16.25;10.38;;;19.90;92.00;;;;;;4934932;29;20036;-84
2021/07/13 03:05:29;;;;;;;17.58;10.45;;;19.90;92.00;;;;;;4919587;29;20027;-83
2021/07/13 03:07:56;;;;;;;18.10;11.50;;;19.90;92.00;;;;;;4921724;29;20034;-83
2021/07/13 03:10:26;;;;;;;15.88;10.88;;;19.90;92.00;;;;;;4922377;29;20125;-85
2021/07/13 03:12:53;;;;;;;16.30;10.05;;;19.90;92.00;;;;;;4930772;29;20031;-84
2021/07/13 03:15:24;;;;;;;16.08;10.15;;;19.90;92.00;;;;;;4956762;29;20138;-85
2021/07/13 03:17:52;;;;;;;17.92;10.15;;;19.90;92.00;;;;;;4940271;29;20129;-84
2021/07/13 03:20:18;;;;;;;18.98;10.80;;;19.90;92.10;;;;;;4959333;29;20490;-85
2021/07/13 03:22:46;;;;;;;16.98;10.85;;;19.90;92.10;;;;;;4946182;29;20114;-85
2021/07/13 03:25:33;;;;;;;15.52;9.80;;;19.90;92.10;;;;;;4939930;29;20394;-84
2021/07/13 03:28:01;;;;;;;18.25;10.90;;;19.90;92.10;;;;;;4940319;29;20497;-84
2021/07/13 03:30:27;;;;;;;19.15;11.38;;;19.90;92.10;;;;;;4939488;29;20082;-83
2021/07/13 03:32:54;;;;;;;18.10;10.95;;;19.90;92.00;;;;;;4939852;29;20031;-85
2021/07/13 03:35:23;;;;;;;18.23;11.48;;;19.90;92.00;;;;;;4940426;29;20024;-84
2021/07/13 03:37:51;;;;;;;19.88;11.88;;;19.90;92.10;;;;;;4940187;29;20057;-84
2021/07/13 03:40:18;;;;;;;17.95;11.15;;;19.90;92.00;;;;;;4939557;29;20045;-84
2021/07/13 03:42:45;;;;;;;19.38;11.27;;;19.90;92.00;;;;;;4940094;29;20036;-84
2021/07/13 03:45:15;;;;;;;18.88;11.63;;;19.90;92.00;;;;;;4939756;29;20026;-83
2021/07/13 03:47:51;;;;;;;17.17;10.48;;;19.90;92.00;;;;;;4940075;29;20423;-84
2021/07/13 03:50:18;;;;;;;15.23;10.10;;;19.90;92.10;;;;;;4956223;29;20031;-82
2021/07/13 03:52:44;;;;;;;18.13;10.50;;;19.90;92.10;;;;;;4937952;29;20495;-83
2021/07/13 03:55:11;;;;;;;17.25;11.55;;;19.90;92.00;;;;;;4920319;29;20024;-83
2021/07/13 03:57:39;;;;;;;15.45;10.45;;;19.90;92.10;;;;;;4925261;29;20035;-83
2021/07/13 04:00:14;;;;;;;17.55;11.63;;;19.90;92.10;;;;;;4947437;29;20038;-83
2021/07/13 04:02:40;;;;;;;17.02;9.90;;;19.90;92.10;;;;;;4928827;29;20548;-84
2021/07/13 04:05:08;;;;;;;17.77;11.23;;;19.90;92.10;;;;;;4928857;29;20046;-83
2021/07/13 04:07:34;;;;;;;18.42;11.00;;;19.90;92.10;;;;;;4931007;29;20023;-82
2021/07/13 04:10:00;;;;;;;20.50;11.57;;;20.00;92.10;;;;;;4956826;29;20031;-83
2021/07/13 04:12:26;;;;;;;20.02;11.80;;;19.90;92.10;;;;;;4939055;29;20113;-83
2021/07/13 04:14:51;;;;;;;19.02;12.50;;;20.00;92.10;;;;;;4956697;29;20031;-84
2021/07/13 04:17:17;;;;;;;17.33;10.60;;;20.00;92.10;;;;;;4955959;28;20490;-83
2021/07/13 04:19:43;;;;;;;19.83;11.52;;;20.00;92.10;;;;;;4939447;29;20043;-84
2021/07/13 04:22:09;;;;;;;18.70;11.65;;;20.00;92.10;;;;;;4939714;29;20027;-83
2021/07/13 04:24:34;;;;;;;18.83;12.15;;;20.00;92.10;;;;;;4939735;29;20456;-84
2021/07/13 04:27:00;;;;;;;20.60;12.55;;;20.00;92.10;;;;;;4939364;29;20122;-84
2021/07/13 04:29:25;;;;;;;24.20;13.93;;;20.00;92.10;;;;;;4955966;29;20023;-84
2021/07/13 04:31:51;;;;;;;23.25;13.63;;;20.00;92.20;;;;;;4936366;29;20047;-80
2021/07/13 04:34:17;;;;;;;21.90;12.63;;;20.00;92.20;;;;;;4935074;29;20038;-79
2021/07/13 04:36:42;;;;;;;26.15;14.93;;;20.10;92.20;;;;;;4935135;29;20027;-82
2021/07/13 04:39:09;;;;;;;30.75;17.50;;;20.10;92.30;;;;;;4934081;29;20475;-80
2021/07/13 04:41:35;;;;;;;26.42;16.48;;;20.10;92.30;;;;;;4934156;29;20020;-79
2021/07/13 04:44:01;;;;;;;32.08;17.02;;;20.10;92.20;;;;;;4934071;29;20122;-82
2021/07/13 04:46:28;;;;;;;30.55;17.25;;;20.10;92.30;;;;;;4934969;29;20039;-80
2021/07/13 04:48:55;;;;;;;25.38;15.20;;;20.10;92.60;;;;;;4935787;29;20090;-80
2021/07/13 04:51:21;;;;;;;30.13;17.42;;;20.10;92.30;;;;;;4934607;29;20035;-81
2021/07/13 04:53:47;;;;;;;26.58;15.27;;;20.10;92.40;;;;;;4935567;29;20356;-81
2021/07/13 04:56:13;;;;;;;26.27;15.10;;;20.10;92.40;;;;;;4935013;29;20028;-82
2021/07/13 04:58:38;;;;;;;29.60;15.45;;;20.20;92.40;;;;;;4934100;29;20370;-80
2021/07/13 05:01:04;;;;;;;31.55;16.30;;;20.10;92.30;;;;;;4933465;29;20062;-80
2021/07/13 05:03:30;;;;;;;27.83;16.25;;;20.10;92.40;;;;;;4914499;29;20020;-82
2021/07/13 05:05:55;;;;;;;29.95;16.98;;;20.10;92.40;;;;;;4917458;29;20059;-82
2021/07/13 05:08:24;;;;;;;28.73;14.95;;;20.10;92.40;;;;;;4915457;29;20038;-81
2021/07/13 05:10:50;;;;;;;32.28;15.77;;;20.20;92.40;;;;;;4915962;29;20028;-81
2021/07/13 05:13:16;;;;;;;31.15;15.93;;;20.20;92.40;;;;;;4915073;29;20024;-80
2021/07/13 05:15:42;;;;;;;30.60;16.70;;;20.10;92.40;;;;;;4915878;29;20469;-81
2021/07/13 05:18:12;;;;;;;31.88;15.82;;;20.20;92.40;;;;;;4915777;29;20032;-81
2021/07/13 05:20:43;;;;;;;30.25;15.65;;;20.10;92.60;;;;;;4915427;29;20028;-82
2021/07/13 05:23:09;;;;;;;;;;;20.10;92.30;;;;;;4916295;29;20024;-81
2021/07/13 05:25:36;;;;;;;28.38;15.15;;;20.10;92.20;;;;;;4915168;29;19933;-81
2021/07/13 05:28:03;;;;;;;28.88;16.45;;;20.10;92.20;;;;;;4915119;29;20032;-81
2021/07/13 05:30:29;;;;;;;32.22;16.90;;;20.10;92.20;;;;;;4916183;29;20032;-81
2021/07/13 05:32:57;;;;;;;31.98;17.60;;;20.10;92.20;;;;;;4918714;29;20019;-81
2021/07/13 05:35:23;;;;;;;31.30;16.45;;;20.20;92.20;;;;;;4918114;29;20060;-80
2021/07/13 05:37:50;;;;;;;33.50;18.42;;;20.20;92.10;;;;;;4935673;29;20054;-80
2021/07/13 05:40:16;;;;;;;30.05;16.42;;;20.10;92.10;;;;;;4918144;29;20040;-80
2021/07/13 05:42:42;;;;;;;33.30;17.45;;;20.10;92.20;;;;;;4918627;29;20396;-80
2021/07/13 05:45:09;;;;;;;25.88;14.48;;;20.10;92.10;;;;;;4918588;29;20078;-80
2021/07/13 05:47:35;;;;;;;33.10;16.13;;;20.10;92.20;;;;;;4935096;29;20347;-81
2021/07/13 05:50:03;;;;;;;30.88;16.33;;;20.10;92.20;;;;;;4935563;29;20034;-81
2021/07/13 05:52:28;;;;;;;30.67;15.82;;;20.10;92.20;;;;;;4934859;29;20024;-80
2021/07/13 05:54:54;;;;;;;31.52;15.73;;;20.10;92.20;;;;;;4918322;29;20030;-80
2021/07/13 05:57:20;;;;;;;32.75;16.67;;;20.00;92.20;;;;;;4934511;29;20031;-80
2021/07/13 05:59:45;;;;;;;32.80;16.90;;;20.10;92.20;;;;;;4918323;29;20024;-81
2021/07/13 06:02:11;;;;;;;29.13;15.90;;;20.10;92.20;;;;;;4935491;29;20433;-81
2021/07/13 06:04:37;;;;;;;33.40;17.02;;;20.10;92.20;;;;;;4918153;29;20034;-81
2021/07/13 06:07:03;;;;;;;38.47;17.08;;;20.10;92.20;;;;;;4919026;29;20035;-79
2021/07/13 06:09:29;;;;;;;35.88;17.73;;;20.20;92.20;;;;;;4918986;29;20097;-81
2021/07/13 06:11:55;;;;;;;35.08;17.50;;;20.20;92.20;;;;;;4919233;29;20444;-81
2021/07/13 06:14:22;;;;;;;35.67;17.70;;;20.20;92.20;;;;;;4919815;29;20035;-80
2021/07/13 06:16:48;;;;;;;38.78;19.27;;;20.20;92.20;;;;;;4918710;29;20068;-81
2021/07/13 06:19:13;;;;;;;33.90;16.77;;;20.20;92.20;;;;;;4918159;29;20032;-80
2021/07/13 06:21:39;;;;;;;37.97;19.50;;;20.20;92.30;;;;;;4917340;29;20039;-81
2021/07/13 06:24:05;;;;;;;41.65;19.17;;;20.20;92.30;;;;;;4917945;29;20024;-81
2021/07/13 06:26:30;;;;;;;37.40;17.92;;;20.20;92.30;;;;;;4917298;29;20523;-81
2021/07/13 06:28:57;;;;;;;44.30;20.13;;;20.20;92.30;;;;;;4917899;29;20083;-81
2021/07/13 06:31:23;;;;;;;33.10;17.42;;;20.20;92.30;;;;;;4917029;29;20047;-81
2021/07/13 06:33:48;;;;;;;40.33;19.08;;;20.30;92.30;;;;;;4917845;29;20362;-81
2021/07/13 06:36:14;;;;;;;39.47;18.65;;;20.30;92.40;;;;;;4934776;29;20023;-81
2021/07/13 06:38:40;;;;;;;41.65;18.17;;;20.30;92.40;;;;;;4917208;29;20059;-81
2021/07/13 06:41:06;;;;;;;38.08;18.60;;;20.30;92.40;;;;;;4917821;29;20342;-81
2021/07/13 06:43:31;;;;;;;36.65;18.15;;;20.30;92.40;;;;;;4917046;29;20026;-81
2021/07/13 06:45:57;;;;;;;35.38;17.17;;;20.30;92.40;;;;;;4917540;29;20035;-81
2021/07/13 06:48:23;;;;;;;35.10;16.52;;;20.30;92.50;;;;;;4916904;29;20114;-80
2021/07/13 06:50:53;;;;;;;41.97;18.60;;;20.30;92.50;;;;;;4934651;29;20019;-81
2021/07/13 06:53:18;;;;;;;39.67;19.60;;;20.30;92.50;;;;;;4917589;29;20050;-81
2021/07/13 06:55:44;;;;;;;45.25;19.08;;;20.30;92.60;;;;;;4916859;29;20023;-81
2021/07/13 06:58:10;;;;;;;39.25;18.17;;;20.30;92.60;;;;;;4917373;29;20424;-81
2021/07/13 07:00:36;;;;;;;34.53;17.65;;;20.30;92.60;;;;;;4916899;29;20028;-80
2021/07/13 07:03:01;;;;;;;38.22;18.27;;;20.30;92.60;;;;;;4934732;29;20058;-80
2021/07/13 07:05:27;;;;;;;40.15;18.10;;;20.30;92.70;;;;;;4916825;29;20020;-80
2021/07/13 07:07:53;;;;;;;37.60;19.10;;;20.30;92.80;;;;;;4917469;29;20028;-80
2021/07/13 07:10:20;;;;;;;38.95;17.77;;;20.30;93.10;;;;;;4917383;29;20155;-81
2021/07/13 07:12:47;;;;;;;34.10;16.83;;;20.30;92.90;;;;;;4916978;29;20539;-80
2021/07/13 07:15:14;;;;;;;39.30;19.48;;;20.20;93.00;;;;;;4917328;29;20046;-80
2021/07/13 07:17:51;;;;;;;40.10;19.17;;;20.20;93.00;;;;;;4916622;29;20043;-80
2021/07/13 07:20:19;;;;;;;37.45;18.05;;;20.30;93.00;;;;;;4934572;29;20024;-80
2021/07/13 07:22:45;;;;;;;37.53;17.58;;;20.30;93.00;;;;;;4916729;29;20028;-80
2021/07/13 07:25:11;;;;;;;36.08;18.00;;;20.30;93.00;;;;;;4917196;29;20032;-80
2021/07/13 07:27:38;;;;;;;37.03;18.35;;;20.30;93.00;;;;;;4933786;29;20023;-80
2021/07/13 07:30:09;;;;;;;37.72;17.85;;;20.30;93.00;;;;;;4917247;29;20031;-80
2021/07/13 07:32:35;;;;;;;;;;;20.30;93.00;;;;;;4916363;29;20110;-80
2021/07/13 07:35:02;;;;;;;31.50;15.77;;;20.30;92.90;;;;;;4916896;29;20005;-80
2021/07/13 07:37:27;;;;;;;34.03;16.30;;;20.40;92.90;;;;;;4933881;29;20024;-80
2021/07/13 07:39:53;;;;;;;34.35;17.70;;;20.40;92.90;;;;;;4917150;29;20024;-80
2021/07/13 07:42:19;;;;;;;38.28;18.45;;;20.40;92.90;;;;;;4934293;29;20087;-80
2021/07/13 07:44:45;;;;;;;35.53;17.17;;;20.50;93.00;;;;;;4916459;29;20074;-79
2021/07/13 07:47:10;;;;;;;36.58;17.48;;;20.50;93.00;;;;;;4916791;29;20043;-80
2021/07/13 07:49:36;;;;;;;34.85;17.38;;;20.60;93.00;;;;;;4933504;29;20028;-79
2021/07/13 07:52:03;;;;;;;32.70;16.20;;;20.60;93.00;;;;;;4919525;29;20024;-80
2021/07/13 07:54:29;;;;;;;34.80;15.85;;;20.60;93.00;;;;;;4919909;29;20035;-80
2021/07/13 07:56:54;;;;;;;38.03;17.25;;;20.70;93.10;;;;;;4937397;29;20107;-79
2021/07/13 07:59:21;;;;;;;31.40;16.02;;;20.70;93.10;;;;;;4920422;29;20379;-79
2021/07/13 08:01:47;;;;;;;36.70;16.95;;;20.70;93.10;;;;;;4919769;29;20069;-80
2021/07/13 08:04:13;;;;;;;31.02;14.98;;;20.80;93.10;;;;;;4920236;29;20031;-80
2021/07/13 08:06:39;;;;;;;28.88;15.20;;;20.80;93.00;;;;;;4936552;29;20028;-80
2021/07/13 08:09:07;;;;;;;27.10;14.82;;;20.80;93.00;;;;;;4937483;29;20491;-80
2021/07/13 08:11:34;;;;;;;29.08;14.75;;;20.80;93.10;;;;;;4936694;29;20027;-81
2021/07/13 08:14:00;;;;;;;29.50;15.13;;;20.70;93.20;;;;;;4920128;29;20027;-80
2021/07/13 08:16:27;;;;;;;31.02;14.93;;;20.70;93.20;;;;;;4919672;29;20027;-80
2021/07/13 08:18:53;;;;;;;35.38;16.83;;;20.70;93.30;;;;;;4919992;29;20480;-80
2021/07/13 08:21:19;;;;;;;31.00;14.77;;;20.70;93.30;;;;;;4937204;29;20083;-80
2021/07/13 08:23:46;;;;;;;31.17;14.10;;;20.70;93.40;;;;;;4919394;29;20024;-80
2021/07/13 08:26:12;;;;;;;29.50;14.43;;;20.60;93.50;;;;;;4919943;29;20071;-80
2021/07/13 08:28:39;;;;;;;26.05;13.45;;;20.60;93.60;;;;;;4919416;29;20047;-80
2021/07/13 08:31:06;;;;;;;27.70;14.02;;;20.60;93.60;;;;;;4919678;29;20023;-80
2021/07/13 08:33:32;;;;;;;24.10;12.88;;;20.70;93.60;;;;;;4919194;29;20039;-80
2021/07/13 08:35:57;;;;;;;26.27;12.05;;;20.70;93.50;;;;;;4919970;29;20034;-80
2021/07/13 08:38:23;;;;;;;27.08;13.07;;;20.80;93.50;;;;;;4937042;29;20031;-80
2021/07/13 08:40:50;;;;;;;23.20;12.05;;;20.80;93.50;;;;;;4919196;29;20043;-81
2021/07/13 08:43:16;;;;;;;23.50;12.60;;;20.90;93.50;;;;;;4919745;29;20024;-80
2021/07/13 08:45:43;;;;;;;25.30;12.23;;;20.90;93.50;;;;;;4936007;29;20468;-80
2021/07/13 08:48:12;;;;;;;25.40;13.57;;;20.90;93.80;;;;;;4936740;29;20441;-81
2021/07/13 08:50:38;;;;;;;25.65;13.05;;;21.00;93.60;;;;;;4918954;29;20031;-81
2021/07/13 08:53:05;;;;;;;26.85;12.55;;;21.10;93.40;;;;;;4919590;29;20388;-81
2021/07/13 08:55:31;;;;;;;22.55;12.50;;;21.20;93.30;;;;;;4935857;29;20033;-81
2021/07/13 08:57:56;;;;;;;21.60;11.38;;;21.40;93.20;;;;;;4919430;29;20090;-80
2021/07/13 09:00:22;;;;;;;23.85;12.02;;;21.40;93.10;;;;;;4936909;29;20035;-81
2021/07/13 09:03:08;;;;;;;23.05;12.15;;;21.50;93.10;;;;;;4918100;29;20030;-81
2021/07/13 09:05:39;;;;;;;22.33;11.50;;;21.60;93.10;;;;;;4918819;29;20024;-80
2021/07/13 09:08:15;;;;;;;;;;;21.70;93.00;;;;;;4919713;29;20036;-80
2021/07/13 09:11:17;;;;;;;22.95;11.57;;;21.70;92.80;;;;;;4935616;29;19922;-80
2021/07/13 09:13:44;;;;;;;24.45;11.82;;;21.80;92.70;;;;;;4918627;29;20127;-80
2021/07/13 09:16:16;;;;;;;22.42;11.57;;;21.90;92.60;;;;;;4936084;29;20544;-81
2021/07/13 09:18:56;;;;;;;25.45;12.88;;;22.00;92.50;;;;;;4935784;29;20123;-81
2021/07/13 09:21:26;;;;;;;22.90;12.38;;;22.00;92.50;;;;;;4919256;29;20034;-81
2021/07/13 09:23:59;;;;;;;25.67;13.07;;;22.10;92.40;;;;;;4918307;29;20480;-81
2021/07/13 09:26:43;;;;;;;23.13;12.38;;;22.20;92.40;;;;;;4918570;29;20036;-81
2021/07/13 09:29:35;;;;;;;19.83;11.57;;;22.30;92.30;;;;;;4919003;29;20019;-81
2021/07/13 09:32:32;;;;;;;23.15;11.07;;;22.30;92.20;;;;;;4935563;29;20051;-81
2021/07/13 09:35:13;;;;;;;18.40;10.10;;;22.40;92.20;;;;;;4918711;29;20059;-80
2021/07/13 09:37:47;;;;;;;21.60;10.75;;;22.40;92.10;;;;;;4918145;29;20135;-81
2021/07/13 09:40:17;;;;;;;20.52;10.93;;;22.40;92.20;;;;;;4918751;29;20471;-80
2021/07/13 09:42:49;;;;;;;19.25;11.80;;;22.40;92.20;;;;;;4917943;29;20476;-81
2021/07/13 09:45:24;;;;;;;22.55;11.82;;;22.40;92.30;;;;;;4918597;29;20515;-80
2021/07/13 09:47:56;;;;;;;22.75;12.20;;;22.30;92.30;;;;;;4917793;29;20043;-81
2021/07/13 09:50:30;;;;;;;20.38;11.20;;;22.40;92.40;;;;;;4918178;29;20028;-81
2021/07/13 09:53:01;;;;;;;20.17;11.40;;;22.40;92.40;;;;;;4934967;29;20024;-81
2021/07/13 09:55:27;;;;;;;22.27;11.60;;;22.40;92.40;;;;;;4918356;29;20016;-81
2021/07/13 09:57:53;;;;;;;20.90;11.27;;;22.40;92.30;;;;;;4917628;29;20324;-81
2021/07/13 10:00:20;;;;;;;22.65;12.55;;;22.40;92.30;;;;;;4918272;29;20400;-81
2021/07/13 10:02:46;;;;;;;18.30;11.57;;;22.50;92.30;;;;;;4917562;29;20055;-80
2021/07/13 10:05:13;;;;;;;22.25;12.10;;;22.50;92.20;;;;;;4918297;29;20038;-80
2021/07/13 10:07:40;;;;;;;20.27;10.85;;;22.60;92.10;;;;;;4917637;29;20131;-80
2021/07/13 10:10:08;;;;;;;20.77;11.25;;;22.60;92.10;;;;;;4935375;29;20114;-80
2021/07/13 10:12:35;;;;;;;17.95;10.75;;;22.60;92.10;;;;;;4918005;29;20020;-80
2021/07/13 10:15:00;;;;;;;20.48;10.95;;;22.70;92.00;;;;;;4934920;29;20067;-80
2021/07/13 10:17:28;;;;;;;18.58;11.15;;;22.70;91.90;;;;;;4935075;29;20067;-80
2021/07/13 10:19:54;;;;;;;16.08;10.52;;;22.80;91.90;;;;;;4917433;29;20273;-80
2021/07/13 10:22:22;;;;;;;19.10;11.18;;;22.80;91.90;;;;;;4917820;29;20035;-80
2021/07/13 10:24:54;;;;;;;18.98;11.02;;;22.80;91.90;;;;;;4917282;29;20024;-80
2021/07/13 10:27:32;;;;;;;20.52;10.77;;;22.80;91.90;;;;;;4917869;29;20028;-80
2021/07/13 10:30:00;;;;;;;19.15;10.73;;;22.70;91.90;;;;;;4934391;29;20087;-80
2021/07/13 10:32:26;;;;;;;17.63;9.85;;;22.80;91.90;;;;;;4934885;29;20043;-81
2021/07/13 10:34:53;;;;;;;16.92;10.15;;;22.70;91.90;;;;;;4934389;29;20027;-80
2021/07/13 10:37:30;;;;;;;17.90;10.70;;;22.60;92.00;;;;;;4934855;29;20043;-80
2021/07/13 10:39:59;;;;;;;18.83;10.75;;;22.60;92.10;;;;;;4917198;29;20345;-81
2021/07/13 10:42:40;;;;;;;19.08;10.70;;;22.60;92.20;;;;;;4935021;29;20469;-80
2021/07/13 10:45:13;;;;;;;17.02;9.73;;;22.50;92.30;;;;;;4917749;29;20368;-80
2021/07/13 10:47:58;;;;;;;19.50;10.38;;;22.50;92.20;;;;;;4916994;29;20349;-81
2021/07/13 10:50:32;;;;;;;18.17;10.15;;;22.50;92.20;;;;;;4917535;29;20024;-80
2021/07/13 10:52:59;;;;;;;17.77;9.88;;;22.50;92.20;;;;;;4916920;29;20027;-81
2021/07/13 10:55:31;;;;;;;21.58;11.75;;;22.50;92.20;;;;;;4917255;29;20019;-80
2021/07/13 10:58:13;;;;;;;16.52;10.38;;;22.60;92.20;;;;;;4916856;29;20103;-80
2021/07/13 11:00:47;;;;;;;19.33;10.85;;;22.60;92.10;;;;;;4933699;29;20379;-81
2021/07/13 11:03:35;;;;;;;18.35;10.45;;;22.60;92.00;;;;;;4934407;29;20079;-80
2021/07/13 11:06:16;;;;;;;21.73;11.75;;;22.60;91.90;;;;;;4933930;29;20028;-80
2021/07/13 11:08:41;;;;;;;19.75;11.32;;;22.70;91.90;;;;;;4916688;29;20111;-80
2021/07/13 11:11:16;;;;;;;20.02;11.57;;;22.70;91.80;;;;;;4917352;29;20179;-80
2021/07/13 11:13:43;;;;;;;21.35;11.68;;;22.80;91.70;;;;;;4933939;29;20028;-81
2021/07/13 11:16:09;;;;;;;20.75;12.95;;;22.80;91.70;;;;;;4934490;29;20035;-81
2021/07/13 11:18:37;;;;;;;21.02;11.35;;;22.80;91.70;;;;;;4917350;29;20392;-81
2021/07/13 11:21:15;;;;;;;19.25;10.27;;;22.80;91.80;;;;;;4916710;29;20048;-81
2021/07/13 11:23:42;;;;;;;17.67;10.95;;;22.80;91.80;;;;;;4916822;29;20361;-81
2021/07/13 11:26:10;;;;;;;22.23;11.27;;;22.70;91.80;;;;;;4935589;29;20028;-80
2021/07/13 11:28:37;;;;;;;20.50;11.80;;;22.70;91.80;;;;;;4921165;29;20027;-81
2021/07/13 11:31:04;;;;;;;21.08;11.50;;;22.70;91.90;;;;;;4920418;29;20051;-80
2021/07/13 11:33:29;;;;;;;18.65;11.00;;;22.70;91.90;;;;;;4938310;29;20051;-81
2021/07/13 11:35:57;;;;;;;19.48;11.15;;;22.70;91.80;;;;;;4920211;29;20083;-81
2021/07/13 11:38:29;;;;;;;21.23;11.65;;;22.80;91.70;;;;;;4920943;29;20035;-80
2021/07/13 11:41:15;;;;;;;19.85;11.60;;;22.80;91.60;;;;;;4920031;29;20023;-81
2021/07/13 11:43:42;;;;;;;20.35;11.35;;;22.90;91.60;;;;;;4920353;29;20032;-80
2021/07/13 11:46:16;;;;;;;19.08;10.93;;;22.90;91.50;;;;;;4920947;29;20087;-81
2021/07/13 11:48:53;;;;;;;19.48;12.23;;;23.00;91.40;;;;;;4920193;29;20035;-81
2021/07/13 11:51:54;;;;;;;18.17;11.38;;;23.10;91.30;;;;;;4920749;29;20038;-81
2021/07/13 11:54:22;;;;;;;18.90;10.93;;;23.20;91.20;;;;;;4940364;29;20039;-82
2021/07/13 11:56:51;;;;;;;19.23;11.25;;;23.20;91.10;;;;;;4921652;29;20058;-81
2021/07/13 11:59:18;;;;;;;19.63;11.90;;;23.20;91.10;;;;;;4920865;29;20416;-81
2021/07/13 12:01:44;;;;;;;21.48;12.00;;;23.20;91.10;;;;;;4919748;29;20062;-81
2021/07/13 12:04:13;;;;;;;21.02;12.38;;;23.20;91.10;;;;;;4920560;29;20564;-81
2021/07/13 12:06:40;;;;;;;24.05;12.98;;;23.20;91.10;;;;;;4920428;29;20038;-81
2021/07/13 12:09:09;;;;;;;19.55;11.80;;;23.30;91.10;;;;;;4919644;29;20034;-80
2021/07/13 12:11:37;;;;;;;19.77;12.18;;;23.30;91.10;;;;;;4937079;29;20413;-80
2021/07/13 12:14:05;;;;;;;22.67;12.45;;;23.30;91.00;;;;;;4919526;29;20066;-80
2021/07/13 12:16:32;;;;;;;17.73;11.32;;;23.40;91.00;;;;;;4937207;29;20129;-81
2021/07/13 12:19:00;;;;;;;21.42;12.23;;;23.40;90.90;;;;;;4919377;29;20027;-80
2021/07/13 12:21:27;;;;;;;21.02;12.02;;;23.40;90.90;;;;;;4920055;29;20024;-81
2021/07/13 12:23:54;;;;;;;21.17;13.02;;;23.40;90.80;;;;;;4919309;29;20032;-80
2021/07/13 12:26:27;;;;;;;17.92;10.60;;;23.40;90.80;;;;;;4919874;29;20020;-80
2021/07/13 12:29:07;;;;;;;19.83;12.90;;;23.40;90.80;;;;;;4919202;29;20114;-80
2021/07/13 12:31:36;;;;;;;22.48;12.73;;;23.40;90.90;;;;;;4919616;29;20031;-80
2021/07/13 12:34:04;;;;;;;23.98;13.38;;;23.40;90.80;;;;;;4919095;29;20091;-79
2021/07/13 12:36:34;;;;;;;19.38;11.88;;;23.40;90.80;;;;;;4919696;29;20119;-80